Time;durP1;ratioP1;P1;durP2;ratioP2;P2;SDS_P1;SDS_P2;PMS_P1;PMS_P2;Temp;Humidity;BMP_temperature;BMP_pressure;BME280_temperature;BME280_humidity;BME280_pressure;Samples;Min_cycle;Max_cycle;Signal;HPM_P1;HPM_P2
2023/06/29 00:00:59;;;;;;;677.30;633.97;;;18.20;99.90;;;;;;5018839;28;20049;-70
2023/06/29 00:03:25;;;;;;;700.13;654.85;;;18.20;99.90;;;;;;5018408;28;20029;-70
2023/06/29 00:05:55;;;;;;;681.45;637.47;;;18.20;99.90;;;;;;5010867;28;20464;-70
2023/06/29 00:08:23;;;;;;;665.20;622.60;;;18.20;99.90;;;;;;5043713;28;20482;-70
2023/06/29 00:10:53;;;;;;;671.47;628.20;;;18.20;99.90;;;;;;5025302;28;20049;-70
2023/06/29 00:13:20;;;;;;;659.65;617.83;;;18.20;99.90;;;;;;5023064;28;20402;-71
2023/06/29 00:15:46;;;;;;;667.45;624.22;;;18.20;99.90;;;;;;5026474;28;20068;-70
2023/06/29 00:18:14;;;;;;;673.17;630.28;;;18.20;99.90;;;;;;5015620;28;20772;-71
2023/06/29 00:20:43;;;;;;;686.78;643.13;;;18.20;99.90;;;;;;5025281;28;20481;-70
2023/06/29 00:23:09;;;;;;;698.08;653.47;;;18.20;99.90;;;;;;5027873;28;20037;-70
2023/06/29 00:25:35;;;;;;;684.55;640.50;;;18.20;99.90;;;;;;5027217;28;20107;-70
2023/06/29 00:28:02;;;;;;;695.60;651.17;;;18.20;99.90;;;;;;5022797;28;20096;-71
2023/06/29 00:30:28;;;;;;;691.75;647.22;;;18.20;99.90;;;;;;5010433;28;20103;-70
2023/06/29 00:32:53;;;;;;;694.30;649.22;;;18.20;99.90;;;;;;5007577;28;20041;-71
2023/06/29 00:35:19;;;;;;;673.63;630.67;;;18.20;99.90;;;;;;5043335;28;20052;-70
2023/06/29 00:37:45;;;;;;;676.63;633.28;;;18.20;99.90;;;;;;5023680;28;20344;-70
2023/06/29 00:40:11;;;;;;;688.25;643.50;;;18.20;99.90;;;;;;5019382;28;20129;-70
2023/06/29 00:42:37;;;;;;;682.30;638.47;;;18.20;99.90;;;;;;5024895;28;20046;-70
2023/06/29 00:45:04;;;;;;;681.85;638.25;;;18.20;99.90;;;;;;5026102;28;20046;-70
2023/06/29 00:47:31;;;;;;;699.17;653.85;;;18.20;99.90;;;;;;5022686;28;20057;-70
2023/06/29 00:49:57;;;;;;;667.63;624.78;;;18.20;99.90;;;;;;5024817;28;20053;-70
2023/06/29 00:52:23;;;;;;;678.65;635.33;;;18.20;99.90;;;;;;5023478;28;20041;-70
2023/06/29 00:54:49;;;;;;;684.92;640.95;;;18.20;99.90;;;;;;5009949;28;20513;-70
2023/06/29 00:57:15;;;;;;;693.60;648.85;;;18.20;99.90;;;;;;5025292;28;20048;-70
2023/06/29 00:59:41;;;;;;;679.50;635.85;;;18.20;99.90;;;;;;5023161;28;20623;-70
2023/06/29 01:02:09;;;;;;;683.28;639.90;;;18.20;99.90;;;;;;5027184;28;21017;-70
2023/06/29 01:04:37;;;;;;;680.75;636.78;;;18.20;99.90;;;;;;5009071;28;20045;-70
2023/06/29 01:07:21;;;;;;;674.03;630.33;;;18.20;99.90;;;;;;5024924;28;20093;-70
2023/06/29 01:09:47;;;;;;;653.83;612.25;;;18.20;99.90;;;;;;5035414;28;20408;-70
2023/06/29 01:12:15;;;;;;;682.53;638.78;;;18.20;99.90;;;;;;5012713;28;20051;-70
2023/06/29 01:14:42;;;;;;;692.30;648.35;;;18.20;99.90;;;;;;5025959;28;20048;-70
2023/06/29 01:17:15;;;;;;;682.80;638.97;;;18.20;99.90;;;;;;5039189;28;20041;-70
2023/06/29 01:19:45;;;;;;;668.03;625.05;;;18.20;99.90;;;;;;5026269;28;20053;-70
2023/06/29 01:22:19;;;;;;;678.45;635.05;;;18.20;99.90;;;;;;5039664;28;20076;-71
2023/06/29 01:24:45;;;;;;;672.28;629.70;;;18.10;99.90;;;;;;5004836;28;20033;-70
2023/06/29 01:27:14;;;;;;;677.80;634.58;;;18.10;99.90;;;;;;5018800;28;20041;-70
2023/06/29 01:29:40;;;;;;;651.90;610.05;;;18.10;99.90;;;;;;5003601;28;20053;-70
2023/06/29 01:32:07;;;;;;;676.15;632.95;;;18.10;99.90;;;;;;5026193;28;20044;-70
2023/06/29 01:34:35;;;;;;;661.72;619.25;;;18.10;99.90;;;;;;5039421;28;20041;-70
2023/06/29 01:37:16;;;;;;;669.47;626.92;;;18.10;99.90;;;;;;5024825;28;20600;-70
2023/06/29 01:39:51;;;;;;;658.53;616.88;;;18.10;99.90;;;;;;5026998;28;20045;-70
2023/06/29 01:42:19;;;;;;;653.05;611.38;;;18.10;99.90;;;;;;5011562;28;20402;-70
2023/06/29 01:44:45;;;;;;;648.90;607.65;;;18.10;99.90;;;;;;5004800;28;20042;-70
2023/06/29 01:47:12;;;;;;;663.28;620.85;;;18.10;99.90;;;;;;5019147;28;20052;-70
2023/06/29 01:49:38;;;;;;;652.60;611.65;;;18.10;99.90;;;;;;5024505;28;20076;-70
2023/06/29 01:52:05;;;;;;;639.00;598.58;;;18.10;99.90;;;;;;5025798;28;20048;-70
2023/06/29 01:54:31;;;;;;;669.60;627.50;;;18.10;99.90;;;;;;5020997;28;20033;-70
2023/06/29 01:56:57;;;;;;;637.72;597.03;;;18.10;99.90;;;;;;5026156;28;20049;-70
2023/06/29 01:59:22;;;;;;;678.58;635.58;;;18.10;99.90;;;;;;5025086;28;20169;-70
2023/06/29 02:01:48;;;;;;;664.90;623.03;;;18.10;99.90;;;;;;5015745;28;20381;-70
2023/06/29 02:04:14;;;;;;;660.13;617.88;;;18.10;99.90;;;;;;5025425;28;20091;-70
2023/06/29 02:06:39;;;;;;;679.53;636.13;;;18.10;99.90;;;;;;5022823;28;20167;-70
2023/06/29 02:09:05;;;;;;;667.67;625.13;;;18.10;99.90;;;;;;5038329;28;20072;-70
2023/06/29 02:11:31;;;;;;;659.55;617.67;;;18.10;99.90;;;;;;5025022;28;20047;-70
2023/06/29 02:13:57;;;;;;;658.70;616.70;;;18.10;99.90;;;;;;5009758;28;20037;-71
2023/06/29 02:16:22;;;;;;;647.75;606.50;;;18.10;99.90;;;;;;5012384;28;20041;-70
2023/06/29 02:18:48;;;;;;;651.85;610.90;;;18.10;99.90;;;;;;5025667;28;20033;-70
2023/06/29 02:21:14;;;;;;;664.92;622.75;;;18.10;99.90;;;;;;5008716;28;20463;-70
2023/06/29 02:23:39;;;;;;;618.78;579.72;;;18.00;99.90;;;;;;5021679;28;20041;-70
2023/06/29 02:26:05;;;;;;;663.95;622.00;;;18.00;99.90;;;;;;5024982;28;20041;-70
2023/06/29 02:28:31;;;;;;;619.97;581.22;;;18.10;99.90;;;;;;5023779;28;20041;-70
2023/06/29 02:30:57;;;;;;;638.92;598.38;;;18.10;99.90;;;;;;5026762;28;20123;-70
2023/06/29 02:33:22;;;;;;;641.25;601.00;;;18.10;99.90;;;;;;5010166;28;20056;-70
2023/06/29 02:35:48;;;;;;;648.47;607.70;;;18.00;99.90;;;;;;5007197;28;20061;-70
2023/06/29 02:38:14;;;;;;;645.97;605.35;;;18.00;99.90;;;;;;5025167;28;20053;-70
2023/06/29 02:40:40;;;;;;;652.85;611.60;;;18.00;99.90;;;;;;5024474;28;20049;-70
2023/06/29 02:43:05;;;;;;;653.92;612.47;;;18.00;99.90;;;;;;5025775;28;20425;-70
2023/06/29 02:45:31;;;;;;;626.63;587.88;;;18.10;99.90;;;;;;5024959;28;20486;-70
2023/06/29 02:47:57;;;;;;;598.72;561.53;;;18.00;99.90;;;;;;5018066;28;20034;-70
2023/06/29 02:50:22;;;;;;;646.40;605.47;;;18.00;99.90;;;;;;5012341;28;20034;-71
2023/06/29 02:52:48;;;;;;;633.33;593.78;;;18.00;99.90;;;;;;5026184;28;20075;-70
2023/06/29 02:55:14;;;;;;;644.35;603.80;;;18.00;99.90;;;;;;5027906;28;20061;-70
2023/06/29 02:57:39;;;;;;;626.55;586.95;;;18.00;99.90;;;;;;5024337;28;20100;-70
2023/06/29 03:00:06;;;;;;;638.10;598.00;;;18.00;99.90;;;;;;5010078;28;20469;-70
2023/06/29 03:02:31;;;;;;;649.00;607.50;;;18.00;99.90;;;;;;5027929;28;20048;-70
2023/06/29 03:04:57;;;;;;;640.53;600.15;;;18.10;99.90;;;;;;5020608;28;20485;-70
2023/06/29 03:07:23;;;;;;;644.90;604.08;;;18.10;99.90;;;;;;5039191;28;20041;-70
2023/06/29 03:09:48;;;;;;;600.67;562.92;;;18.00;99.90;;;;;;5028282;28;20451;-71
2023/06/29 03:12:14;;;;;;;644.55;604.58;;;18.10;99.90;;;;;;5025854;28;20046;-70
2023/06/29 03:14:39;;;;;;;616.05;577.25;;;18.10;99.90;;;;;;5027078;28;20078;-70
2023/06/29 03:17:05;;;;;;;618.97;580.30;;;18.00;99.90;;;;;;5015827;28;21002;-70
2023/06/29 03:19:31;;;;;;;633.00;593.30;;;18.10;99.90;;;;;;5027763;28;20037;-70
2023/06/29 03:21:56;;;;;;;608.25;571.08;;;18.10;99.90;;;;;;5011812;28;20044;-70
2023/06/29 03:24:22;;;;;;;646.05;605.28;;;18.10;99.90;;;;;;5027491;28;20052;-70
2023/06/29 03:26:48;;;;;;;632.97;593.17;;;18.10;99.90;;;;;;5024691;28;20466;-70
2023/06/29 03:29:13;;;;;;;604.08;566.22;;;18.10;99.90;;;;;;5027020;28;20486;-70
2023/06/29 03:31:39;;;;;;;648.22;608.10;;;18.10;99.90;;;;;;5036175;28;20053;-70
2023/06/29 03:34:05;;;;;;;612.78;574.92;;;18.10;99.90;;;;;;5010379;28;20069;-70
2023/06/29 03:36:30;;;;;;;636.60;597.03;;;18.10;99.90;;;;;;5016752;28;20107;-70
2023/06/29 03:38:56;;;;;;;667.05;625.15;;;18.10;99.90;;;;;;5044575;28;20450;-70
2023/06/29 03:41:22;;;;;;;652.80;612.55;;;18.10;99.90;;;;;;5028418;28;20045;-70
2023/06/29 03:43:47;;;;;;;659.00;618.17;;;18.20;99.90;;;;;;5020745;28;20398;-70
2023/06/29 03:46:13;;;;;;;649.35;608.97;;;18.10;99.90;;;;;;5027321;28;20481;-70
2023/06/29 03:48:38;;;;;;;652.20;611.97;;;18.20;99.90;;;;;;5020674;28;20042;-70
2023/06/29 03:51:04;;;;;;;626.45;587.13;;;18.20;99.90;;;;;;5038273;28;20112;-70
2023/06/29 03:53:30;;;;;;;665.00;623.35;;;18.20;99.90;;;;;;5042127;28;20045;-70
2023/06/29 03:55:55;;;;;;;642.35;602.58;;;18.20;99.90;;;;;;5027364;28;20517;-70
2023/06/29 03:58:21;;;;;;;665.97;624.75;;;18.30;99.90;;;;;;5018253;28;20045;-70
2023/06/29 04:00:47;;;;;;;637.63;598.65;;;18.30;99.90;;;;;;5026826;28;20042;-70
2023/06/29 04:03:12;;;;;;;656.53;616.15;;;18.30;99.90;;;;;;5009306;28;20067;-70
2023/06/29 04:05:38;;;;;;;635.53;596.03;;;18.30;99.90;;;;;;5015689;28;20053;-70
2023/06/29 04:08:05;;;;;;;655.78;615.58;;;18.30;99.90;;;;;;5027618;28;20045;-70
2023/06/29 04:10:32;;;;;;;670.08;628.53;;;18.30;99.90;;;;;;5027324;28;20061;-70
2023/06/29 04:12:58;;;;;;;638.28;599.75;;;18.40;99.90;;;;;;5010565;28;20513;-70
2023/06/29 04:15:23;;;;;;;621.00;584.60;;;18.50;99.90;;;;;;5014903;28;20152;-70
2023/06/29 04:17:49;;;;;;;625.13;587.75;;;18.40;99.90;;;;;;5007968;28;20045;-70
2023/06/29 04:20:15;;;;;;;605.45;569.58;;;18.50;99.90;;;;;;5008708;28;20446;-70
2023/06/29 04:22:40;;;;;;;579.92;546.00;;;18.50;99.90;;;;;;5022879;28;20493;-70
2023/06/29 04:25:06;;;;;;;545.50;514.00;;;18.60;99.90;;;;;;5025124;28;20040;-70
2023/06/29 04:27:34;;;;;;;496.92;469.58;;;18.60;99.90;;;;;;5011128;28;20056;-70
2023/06/29 04:30:03;;;;;;;485.17;457.70;;;18.60;99.90;;;;;;5017662;28;20076;-70
2023/06/29 04:32:29;;;;;;;477.23;449.40;;;18.70;99.90;;;;;;5023890;28;20075;-70
2023/06/29 04:34:55;;;;;;;327.42;310.33;;;18.80;99.90;;;;;;5018434;28;20041;-69
2023/06/29 04:37:20;;;;;;;424.88;401.63;;;18.80;99.90;;;;;;5028717;28;20044;-70
2023/06/29 04:39:46;;;;;;;471.42;445.00;;;18.90;99.90;;;;;;5027305;28;20048;-70
2023/06/29 04:42:13;;;;;;;259.90;245.40;;;18.90;99.90;;;;;;5022306;28;20029;-70
2023/06/29 04:44:43;;;;;;;246.00;232.13;;;19.00;99.90;;;;;;5028066;28;20053;-71
2023/06/29 04:47:09;;;;;;;219.43;206.48;;;19.00;99.90;;;;;;5012990;28;20045;-70
2023/06/29 04:49:40;;;;;;;206.25;194.45;;;19.10;99.90;;;;;;5027383;28;20099;-70
2023/06/29 04:52:10;;;;;;;285.92;269.85;;;19.10;99.90;;;;;;5027643;28;20454;-70
2023/06/29 04:54:35;;;;;;;192.48;181.65;;;19.10;99.90;;;;;;5016558;28;20049;-70
2023/06/29 04:57:01;;;;;;;240.30;226.80;;;19.10;99.90;;;;;;5026860;28;20490;-70
2023/06/29 04:59:28;;;;;;;219.95;207.18;;;19.10;99.90;;;;;;5026167;28;20505;-70
2023/06/29 05:01:54;;;;;;;251.07;237.18;;;19.10;99.90;;;;;;5001574;28;20045;-70
2023/06/29 05:04:20;;;;;;;208.52;196.88;;;19.10;99.90;;;;;;5019720;28;20038;-70
2023/06/29 05:06:45;;;;;;;219.85;207.38;;;19.10;99.90;;;;;;5009414;28;20501;-70
2023/06/29 05:09:12;;;;;;;180.32;170.02;;;19.20;99.90;;;;;;5041825;28;20052;-70
2023/06/29 05:11:38;;;;;;;221.10;209.15;;;19.20;99.90;;;;;;5026898;28;20045;-70
2023/06/29 05:14:03;;;;;;;243.43;229.95;;;19.20;99.90;;;;;;5022270;28;20041;-70
2023/06/29 05:16:29;;;;;;;230.57;217.70;;;19.20;99.90;;;;;;5020252;28;20452;-70
2023/06/29 05:18:55;;;;;;;236.48;223.52;;;19.20;99.90;;;;;;5010406;28;20091;-70
2023/06/29 05:21:22;;;;;;;199.20;188.52;;;19.30;99.90;;;;;;5022041;28;20416;-70
2023/06/29 05:23:47;;;;;;;228.40;216.45;;;19.40;99.90;;;;;;5021477;28;20063;-70
2023/06/29 05:26:13;;;;;;;249.63;236.60;;;19.40;99.90;;;;;;5026470;28;20060;-70
2023/06/29 05:28:38;;;;;;;256.52;242.43;;;19.40;99.90;;;;;;5025588;28;20446;-70
2023/06/29 05:31:04;;;;;;;269.05;254.38;;;19.50;99.90;;;;;;5016731;28;20038;-70
2023/06/29 05:33:30;;;;;;;259.60;246.57;;;19.60;99.90;;;;;;5025184;28;20460;-70
2023/06/29 05:35:55;;;;;;;285.98;270.30;;;19.70;99.90;;;;;;5027342;28;20575;-70
2023/06/29 05:38:21;;;;;;;243.15;230.70;;;19.80;99.90;;;;;;5021834;28;20056;-70
2023/06/29 05:40:46;;;;;;;264.92;251.90;;;19.90;99.90;;;;;;5007977;28;20124;-70
2023/06/29 05:43:12;;;;;;;267.38;253.88;;;20.00;99.90;;;;;;4999137;28;20529;-70
2023/06/29 05:45:38;;;;;;;291.75;277.15;;;20.20;99.90;;;;;;5008960;28;20075;-70
2023/06/29 05:48:04;;;;;;;297.65;283.00;;;20.30;99.90;;;;;;5024267;28;20124;-70
2023/06/29 05:50:29;;;;;;;275.45;261.63;;;20.40;99.90;;;;;;5027326;28;20049;-70
2023/06/29 05:52:55;;;;;;;224.18;212.82;;;20.50;99.90;;;;;;5024670;28;20471;-70
2023/06/29 05:55:20;;;;;;;287.98;273.83;;;20.60;99.90;;;;;;5014311;28;20044;-70
2023/06/29 05:57:47;;;;;;;236.70;224.40;;;20.50;99.90;;;;;;5020177;28;20052;-70
2023/06/29 06:00:13;;;;;;;210.80;200.02;;;20.50;99.90;;;;;;5015380;28;20041;-70
2023/06/29 06:02:40;;;;;;;257.00;243.93;;;20.50;99.90;;;;;;5024453;28;20152;-70
2023/06/29 06:05:07;;;;;;;215.63;204.82;;;20.40;99.90;;;;;;5023521;28;20123;-70
2023/06/29 06:07:33;;;;;;;249.48;236.57;;;20.40;99.90;;;;;;5030124;28;21658;-70
2023/06/29 06:09:59;;;;;;;322.83;306.70;;;20.40;99.90;;;;;;5008837;28;20438;-70
2023/06/29 06:12:25;;;;;;;331.70;314.98;;;20.40;99.90;;;;;;5024022;28;20335;-70
2023/06/29 06:14:51;;;;;;;313.35;297.52;;;20.40;99.90;;;;;;5017140;28;20533;-70
2023/06/29 06:17:17;;;;;;;367.92;349.13;;;20.40;99.90;;;;;;5025582;28;20135;-70
2023/06/29 06:19:43;;;;;;;366.17;347.38;;;20.50;99.90;;;;;;5007516;28;20037;-70
2023/06/29 06:22:08;;;;;;;315.17;299.60;;;20.60;99.90;;;;;;5042160;28;20041;-70
2023/06/29 06:24:34;;;;;;;282.77;268.83;;;20.60;99.90;;;;;;5013601;28;20033;-70
2023/06/29 06:27:01;;;;;;;349.65;331.85;;;20.70;99.90;;;;;;5019649;28;20041;-70
2023/06/29 06:29:27;;;;;;;237.90;225.93;;;20.70;99.90;;;;;;5008985;28;20540;-70
2023/06/29 06:31:53;;;;;;;298.95;284.23;;;20.70;99.90;;;;;;5010389;28;20048;-70
2023/06/29 06:34:19;;;;;;;211.43;200.50;;;20.80;99.90;;;;;;5026097;28;20037;-70
2023/06/29 06:36:48;;;;;;;219.65;208.38;;;20.80;99.90;;;;;;5022460;28;20049;-70
2023/06/29 06:39:14;;;;;;;209.70;198.82;;;21.00;99.90;;;;;;5029168;28;20049;-70
2023/06/29 06:41:41;;;;;;;209.25;198.40;;;21.00;99.90;;;;;;5005776;28;20454;-70
2023/06/29 06:44:07;;;;;;;268.17;254.05;;;21.10;99.90;;;;;;5003499;28;20068;-70
2023/06/29 06:46:33;;;;;;;186.18;176.50;;;21.10;99.90;;;;;;5029487;28;20045;-70
2023/06/29 06:48:58;;;;;;;235.18;222.77;;;21.20;99.90;;;;;;5025806;28;20732;-70
2023/06/29 06:51:25;;;;;;;91.18;85.68;;;21.20;99.90;;;;;;5013160;28;20413;-70
2023/06/29 06:53:51;;;;;;;124.75;117.68;;;21.30;99.90;;;;;;5029328;28;20084;-70
2023/06/29 06:56:17;;;;;;;170.75;161.77;;;21.20;99.90;;;;;;5038235;28;20056;-71
2023/06/29 06:58:42;;;;;;;92.30;86.50;;;21.20;99.90;;;;;;5016827;28;20049;-70
2023/06/29 07:01:08;;;;;;;105.05;98.72;;;21.20;99.90;;;;;;5028863;28;20049;-70
2023/06/29 07:03:34;;;;;;;79.65;74.28;;;21.20;99.90;;;;;;5028364;28;20099;-71
2023/06/29 07:06:00;;;;;;;90.28;84.53;;;21.20;99.90;;;;;;5026359;28;20406;-70
2023/06/29 07:08:27;;;;;;;267.58;254.05;;;21.20;99.90;;;;;;5028835;28;20509;-70
2023/06/29 07:10:54;;;;;;;71.93;66.95;;;21.20;99.90;;;;;;5027304;28;20057;-70
2023/06/29 07:13:20;;;;;;;61.60;56.90;;;21.30;99.90;;;;;;5019442;28;20091;-70
2023/06/29 07:15:46;;;;;;;63.15;58.58;;;21.20;99.90;;;;;;5022252;28;20041;-70
2023/06/29 07:18:12;;;;;;;82.22;76.63;;;21.20;99.90;;;;;;5024726;28;20434;-69
2023/06/29 07:20:37;;;;;;;104.80;98.57;;;21.10;99.90;;;;;;5024379;28;20056;-70
2023/06/29 07:23:03;;;;;;;81.65;75.95;;;21.10;99.90;;;;;;5022571;28;20037;-70
2023/06/29 07:25:29;;;;;;;167.85;158.60;;;21.10;99.90;;;;;;5024555;28;20583;-70
2023/06/29 07:27:54;;;;;;;159.57;150.95;;;21.10;99.90;;;;;;4996421;28;20727;-71
2023/06/29 07:30:20;;;;;;;164.25;155.32;;;21.10;99.90;;;;;;5021538;28;20041;-70
2023/06/29 07:32:46;;;;;;;177.73;168.63;;;21.10;99.90;;;;;;5025891;28;20102;-70
2023/06/29 07:35:12;;;;;;;133.05;125.82;;;21.10;99.90;;;;;;5020095;28;20045;-70
2023/06/29 07:37:38;;;;;;;66.85;61.78;;;21.20;99.90;;;;;;5022195;28;20049;-71
2023/06/29 07:40:04;;;;;;;115.05;108.07;;;21.10;99.90;;;;;;5010056;28;20349;-70
2023/06/29 07:42:30;;;;;;;131.07;123.43;;;21.10;99.90;;;;;;5043515;28;20062;-70
2023/06/29 07:44:56;;;;;;;295.15;280.10;;;21.00;99.90;;;;;;5016749;28;20494;-70
2023/06/29 07:47:22;;;;;;;339.88;321.75;;;21.00;99.90;;;;;;5023871;28;20629;-70
2023/06/29 07:49:48;;;;;;;283.42;268.55;;;21.00;99.90;;;;;;5028243;28;20041;-70
2023/06/29 07:52:14;;;;;;;246.30;233.55;;;21.10;99.90;;;;;;5023595;28;20235;-70
2023/06/29 07:54:39;;;;;;;369.42;349.92;;;21.10;99.90;;;;;;5027280;28;20045;-70
2023/06/29 07:57:05;;;;;;;244.45;232.15;;;21.20;99.90;;;;;;5040302;28;20545;-69
2023/06/29 07:59:31;;;;;;;229.25;217.38;;;21.30;99.90;;;;;;5014969;28;20626;-70
2023/06/29 08:01:56;;;;;;;246.10;233.68;;;21.40;99.90;;;;;;5019922;28;20119;-70
2023/06/29 08:04:22;;;;;;;152.18;143.57;;;21.40;99.90;;;;;;5025420;28;20041;-70
2023/06/29 08:06:48;;;;;;;166.50;156.93;;;21.50;99.90;;;;;;5021473;28;20037;-71
2023/06/29 08:09:15;;;;;;;101.47;95.03;;;21.60;99.90;;;;;;5024042;28;20156;-71
2023/06/29 08:11:40;;;;;;;91.25;85.32;;;21.70;99.90;;;;;;5020651;28;20045;-70
2023/06/29 08:14:06;;;;;;;101.88;95.38;;;21.70;99.90;;;;;;5018596;28;20134;-70
2023/06/29 08:16:32;;;;;;;214.25;202.98;;;21.70;99.90;;;;;;5023136;28;20048;-70
2023/06/29 08:18:59;;;;;;;113.80;106.70;;;21.90;99.90;;;;;;5037767;28;20048;-70
2023/06/29 08:21:24;;;;;;;189.40;179.40;;;22.10;99.90;;;;;;5009329;28;20119;-70
2023/06/29 08:23:50;;;;;;;61.58;56.78;;;22.30;99.90;;;;;;5024815;28;20111;-70
2023/06/29 08:26:17;;;;;;;150.75;141.90;;;22.50;99.90;;;;;;5018820;28;20506;-70
2023/06/29 08:28:43;;;;;;;176.05;166.52;;;22.60;99.90;;;;;;5011193;28;20418;-70
2023/06/29 08:31:09;;;;;;;159.25;150.07;;;22.60;99.90;;;;;;5024177;28;20088;-70
2023/06/29 08:33:34;;;;;;;192.60;181.70;;;22.60;99.90;;;;;;5027400;28;20831;-70
2023/06/29 08:36:00;;;;;;;201.82;190.68;;;22.60;99.90;;;;;;5028183;28;20885;-70
2023/06/29 08:38:26;;;;;;;121.20;113.88;;;22.60;99.90;;;;;;5026178;28;20049;-70
2023/06/29 08:40:52;;;;;;;153.77;144.52;;;22.50;99.90;;;;;;5011944;28;20037;-70
2023/06/29 08:43:18;;;;;;;116.68;109.10;;;22.50;99.90;;;;;;5011313;28;20062;-70
2023/06/29 08:45:45;;;;;;;83.35;77.50;;;22.50;99.90;;;;;;5029790;28;20037;-70
2023/06/29 08:48:13;;;;;;;148.77;139.93;;;22.40;99.90;;;;;;5026606;28;20033;-70
2023/06/29 08:51:03;;;;;;;79.50;73.72;;;22.40;99.90;;;;;;5026421;28;20056;-70
2023/06/29 08:53:29;;;;;;;155.68;146.80;;;22.40;99.90;;;;;;5010328;28;20045;-70
2023/06/29 08:55:56;;;;;;;78.03;72.45;;;22.30;99.90;;;;;;5006698;28;20052;-70
2023/06/29 08:58:23;;;;;;;66.82;61.75;;;22.20;99.90;;;;;;5027236;28;20132;-70
2023/06/29 09:00:50;;;;;;;56.83;51.80;;;22.10;99.90;;;;;;5026730;28;20041;-70
2023/06/29 09:03:16;;;;;;;76.40;70.43;;;22.10;99.90;;;;;;5026968;28;20047;-70
2023/06/29 09:05:45;;;;;;;68.68;63.05;;;22.10;99.90;;;;;;5020373;28;20045;-70
2023/06/29 09:08:11;;;;;;;88.22;82.10;;;22.10;99.90;;;;;;5026635;28;20052;-70
2023/06/29 09:10:39;;;;;;;120.15;112.95;;;22.10;99.90;;;;;;5010464;28;20045;-70
2023/06/29 09:13:05;;;;;;;247.13;233.88;;;22.20;99.90;;;;;;5024891;28;20048;-69
2023/06/29 09:15:31;;;;;;;87.55;81.47;;;22.10;99.90;;;;;;5006184;28;20617;-69
2023/06/29 09:17:57;;;;;;;110.93;104.07;;;22.10;99.90;;;;;;5025587;28;20048;-70
2023/06/29 09:20:25;;;;;;;131.05;123.35;;;22.10;99.90;;;;;;5021155;28;20073;-70
2023/06/29 09:22:51;;;;;;;82.03;76.13;;;22.10;99.90;;;;;;5022748;28;20045;-70
2023/06/29 09:25:17;;;;;;;114.03;106.72;;;22.10;99.90;;;;;;5024707;28;20121;-70
2023/06/29 09:27:43;;;;;;;81.18;75.32;;;22.00;99.90;;;;;;5035209;28;20131;-70
2023/06/29 09:30:16;;;;;;;76.20;70.78;;;22.00;99.90;;;;;;5023805;28;20183;-70
2023/06/29 09:32:42;;;;;;;66.53;61.63;;;22.00;99.90;;;;;;5019320;28;20041;-70
2023/06/29 09:35:08;;;;;;;74.43;68.85;;;21.90;99.90;;;;;;5026174;28;20331;-70
2023/06/29 09:37:35;;;;;;;71.95;66.32;;;21.80;99.90;;;;;;5022522;28;20054;-70
2023/06/29 09:40:09;;;;;;;135.75;127.70;;;21.70;99.90;;;;;;5024766;28;20128;-70
2023/06/29 09:42:38;;;;;;;58.33;53.33;;;21.70;99.90;;;;;;5023074;28;20516;-70
2023/06/29 09:45:15;;;;;;;120.22;113.05;;;21.80;99.90;;;;;;5026618;28;20107;-70
2023/06/29 09:47:48;;;;;;;60.65;56.08;;;21.90;99.90;;;;;;5013473;28;20053;-70
2023/06/29 09:50:19;;;;;;;82.20;76.72;;;22.00;99.90;;;;;;5026055;28;20041;-70
2023/06/29 09:52:50;;;;;;;83.53;77.93;;;22.10;99.90;;;;;;5017874;28;20037;-70
2023/06/29 09:55:17;;;;;;;70.40;65.30;;;22.10;99.90;;;;;;5009647;28;20167;-70
2023/06/29 09:57:49;;;;;;;81.57;76.05;;;22.00;99.90;;;;;;5042209;28;20041;-70
2023/06/29 10:00:15;;;;;;;70.22;64.93;;;22.00;99.90;;;;;;5020452;28;20053;-70
2023/06/29 10:02:41;;;;;;;63.58;58.67;;;21.90;99.90;;;;;;5039864;28;20103;-70
2023/06/29 10:05:08;;;;;;;68.65;63.63;;;21.90;99.90;;;;;;5008701;28;20469;-70
2023/06/29 10:07:36;;;;;;;70.38;65.18;;;21.80;99.90;;;;;;5005575;28;20041;-70
2023/06/29 10:10:04;;;;;;;87.07;81.32;;;21.70;99.90;;;;;;5032184;28;20627;-71
2023/06/29 10:12:31;;;;;;;63.08;57.88;;;21.70;99.90;;;;;;5017261;28;20128;-70
2023/06/29 10:15:05;;;;;;;117.00;109.75;;;21.50;99.90;;;;;;5021738;28;20081;-70
2023/06/29 10:17:59;;;;;;;92.63;86.00;;;21.40;99.90;;;;;;5034140;28;20131;-70
2023/06/29 10:20:27;;;;;;;126.10;118.93;;;21.30;99.90;;;;;;5022207;28;20073;-70
2023/06/29 10:22:56;;;;;;;142.50;134.38;;;21.30;99.90;;;;;;5007748;28;20482;-70
2023/06/29 10:25:23;;;;;;;192.73;182.43;;;21.20;99.90;;;;;;5023222;28;20052;-70
2023/06/29 10:27:51;;;;;;;229.10;217.20;;;21.20;99.90;;;;;;5025639;28;20045;-70
2023/06/29 10:30:23;;;;;;;211.60;200.57;;;21.10;99.90;;;;;;5004146;28;20049;-70
2023/06/29 10:32:50;;;;;;;212.63;201.45;;;21.00;99.90;;;;;;5026524;28;20103;-70
2023/06/29 10:35:17;;;;;;;185.25;174.95;;;21.00;99.90;;;;;;5018583;28;20557;-70
2023/06/29 10:37:50;;;;;;;209.38;198.48;;;21.00;99.90;;;;;;5022508;28;20493;-70
2023/06/29 10:40:21;;;;;;;187.40;177.35;;;21.00;99.90;;;;;;5023977;28;20080;-70
2023/06/29 10:42:47;;;;;;;199.23;188.40;;;21.10;99.90;;;;;;5027795;28;20049;-70
2023/06/29 10:45:18;;;;;;;194.32;183.63;;;21.20;99.90;;;;;;5034234;28;20112;-70
2023/06/29 10:47:58;;;;;;;158.00;149.45;;;21.30;99.90;;;;;;5033644;28;20128;-70
2023/06/29 10:50:31;;;;;;;185.63;175.73;;;21.40;99.90;;;;;;5002441;28;20436;-70
2023/06/29 10:53:02;;;;;;;138.10;129.70;;;21.60;99.90;;;;;;5005651;28;20053;-69
2023/06/29 10:55:58;;;;;;;81.32;75.70;;;21.60;99.90;;;;;;5004689;28;20049;-70
2023/06/29 10:58:26;;;;;;;150.20;141.63;;;21.70;99.90;;;;;;5019307;28;20536;-70
2023/06/29 11:00:53;;;;;;;85.35;79.50;;;21.80;99.90;;;;;;5016340;28;20095;-70
2023/06/29 11:03:20;;;;;;;86.70;80.85;;;22.00;99.90;;;;;;5020795;28;20060;-70
2023/06/29 11:05:57;;;;;;;64.05;59.03;;;22.00;99.90;;;;;;5011542;28;20120;-70
2023/06/29 11:08:23;;;;;;;85.15;79.20;;;22.00;99.90;;;;;;5021791;28;20037;-70
2023/06/29 11:10:52;;;;;;;87.55;81.70;;;22.10;99.90;;;;;;5021497;28;20138;-70
2023/06/29 11:13:18;;;;;;;82.07;76.35;;;22.10;99.90;;;;;;5021189;28;20156;-70
2023/06/29 11:15:50;;;;;;;66.82;61.67;;;22.00;99.90;;;;;;5021649;28;20083;-70
2023/06/29 11:18:16;;;;;;;91.32;85.03;;;22.00;99.90;;;;;;5011609;28;20136;-70
2023/06/29 11:20:41;;;;;;;93.88;87.43;;;22.00;99.90;;;;;;5013232;28;20120;-70
2023/06/29 11:23:07;;;;;;;75.28;69.47;;;22.00;99.90;;;;;;5004424;28;20034;-70
2023/06/29 11:25:34;;;;;;;72.70;66.88;;;22.00;99.90;;;;;;5023122;28;20398;-70
2023/06/29 11:28:01;;;;;;;87.88;81.45;;;22.10;99.90;;;;;;5019255;28;20080;-70
2023/06/29 11:30:27;;;;;;;123.57;115.93;;;22.10;99.90;;;;;;5006664;28;20030;-70
2023/06/29 11:32:53;;;;;;;139.52;130.70;;;22.30;99.90;;;;;;5028347;28;20555;-70
2023/06/29 11:35:22;;;;;;;169.32;159.45;;;22.70;99.90;;;;;;5028423;28;20130;-70
2023/06/29 11:37:57;;;;;;;195.65;184.77;;;22.90;99.90;;;;;;5011710;28;20409;-69
2023/06/29 11:40:24;;;;;;;343.63;325.40;;;23.10;99.90;;;;;;5027156;28;20057;-70
2023/06/29 11:42:50;;;;;;;403.83;382.05;;;23.20;99.90;;;;;;5027981;28;20079;-70
2023/06/29 11:45:20;;;;;;;326.73;309.75;;;23.20;99.90;;;;;;5028234;28;20125;-70
2023/06/29 11:47:53;;;;;;;423.65;400.63;;;23.20;99.90;;;;;;4996553;28;20045;-70
2023/06/29 11:50:19;;;;;;;447.00;422.08;;;23.10;99.90;;;;;;5028009;28;20439;-70
2023/06/29 11:52:45;;;;;;;486.23;458.80;;;22.90;99.90;;;;;;5028316;28;20030;-70
2023/06/29 11:55:15;;;;;;;547.65;516.75;;;22.70;99.90;;;;;;5026962;28;20499;-70
2023/06/29 11:57:43;;;;;;;531.65;501.30;;;22.60;99.90;;;;;;5027349;28;20469;-69
2023/06/29 12:00:30;;;;;;;574.45;540.88;;;22.70;99.90;;;;;;5022595;28;20045;-70
2023/06/29 12:02:56;;;;;;;552.08;519.80;;;23.00;99.90;;;;;;5003831;28;20048;-70
2023/06/29 12:05:27;;;;;;;545.30;513.38;;;23.20;99.90;;;;;;5023442;28;20037;-70
2023/06/29 12:07:53;;;;;;;580.67;545.75;;;23.60;99.90;;;;;;5027642;28;20040;-70
2023/06/29 12:10:23;;;;;;;593.70;557.63;;;23.90;99.90;;;;;;5027686;28;20424;-70